sensor_id;sensor_type;location;lat;lon;timestamp;pressure;altitude;pressure_sealevel;temperature;humidity
22755;BME280;11544;42.020;23.094;2023-05-20T00:01:26;97407.72;;;13.89;100.00
22755;BME280;11544;42.020;23.094;2023-05-20T00:03:53;97400.66;;;13.91;100.00
22755;BME280;11544;42.020;23.094;2023-05-20T00:06:22;97403.00;;;13.77;100.00
22755;BME280;11544;42.020;23.094;2023-05-20T00:08:49;97400.91;;;14.04;100.00
22755;BME280;11544;42.020;23.094;2023-05-20T00:11:19;97403.91;;;14.15;100.00
22755;BME280;11544;42.020;23.094;2023-05-20T00:13:51;97407.63;;;14.10;100.00
22755;BME280;11544;42.020;23.094;2023-05-20T00:16:18;97400.19;;;14.19;100.00
22755;BME280;11544;42.020;23.094;2023-05-20T00:18:45;97396.78;;;14.36;100.00
22755;BME280;11544;42.020;23.094;2023-05-20T00:21:13;97392.84;;;14.28;100.00
22755;BME280;11544;42.020;23.094;2023-05-20T00:23:40;97403.06;;;14.15;100.00
22755;BME280;11544;42.020;23.094;2023-05-20T00:26:08;97404.97;;;14.11;100.00
22755;BME280;11544;42.020;23.094;2023-05-20T00:28:35;97408.78;;;13.85;100.00
22755;BME280;11544;42.020;23.094;2023-05-20T00:31:02;97416.13;;;13.96;100.00
22755;BME280;11544;42.020;23.094;2023-05-20T00:33:29;97410.34;;;14.27;100.00
22755;BME280;11544;42.020;23.094;2023-05-20T00:35:56;97414.16;;;14.20;100.00
22755;BME280;11544;42.020;23.094;2023-05-20T00:38:23;97411.97;;;13.92;100.00
22755;BME280;11544;42.020;23.094;2023-05-20T00:40:50;97417.78;;;14.17;100.00
22755;BME280;11544;42.020;23.094;2023-05-20T00:43:17;97416.28;;;14.12;100.00
22755;BME280;11544;42.020;23.094;2023-05-20T00:45:46;97415.38;;;13.94;100.00
22755;BME280;11544;42.020;23.094;2023-05-20T00:48:13;97427.50;;;13.37;100.00
22755;BME280;11544;42.020;23.094;2023-05-20T00:50:40;97432.53;;;13.62;100.00
22755;BME280;11544;42.020;23.094;2023-05-20T00:53:07;97432.53;;;13.41;100.00
22755;BME280;11544;42.020;23.094;2023-05-20T00:55:35;97424.59;;;13.22;100.00
22755;BME280;11544;42.020;23.094;2023-05-20T00:58:04;97429.47;;;13.31;100.00
22755;BME280;11544;42.020;23.094;2023-05-20T01:00:31;97425.13;;;13.51;100.00
22755;BME280;11544;42.020;23.094;2023-05-20T01:02:58;97427.69;;;13.32;100.00
22755;BME280;11544;42.020;23.094;2023-05-20T01:05:25;97413.94;;;13.68;100.00
22755;BME280;11544;42.020;23.094;2023-05-20T01:07:52;97419.19;;;13.47;100.00
22755;BME280;11544;42.020;23.094;2023-05-20T01:10:21;97415.66;;;13.48;100.00
22755;BME280;11544;42.020;23.094;2023-05-20T01:12:53;97415.22;;;13.78;100.00
22755;BME280;11544;42.020;23.094;2023-05-20T01:15:26;97411.28;;;13.28;100.00
22755;BME280;11544;42.020;23.094;2023-05-20T01:18:00;97415.19;;;13.18;100.00
22755;BME280;11544;42.020;23.094;2023-05-20T01:20:31;97420.81;;;13.09;100.00
22755;BME280;11544;42.020;23.094;2023-05-20T01:23:01;97424.00;;;12.95;100.00
22755;BME280;11544;42.020;23.094;2023-05-20T01:25:29;97427.94;;;13.05;100.00
22755;BME280;11544;42.020;23.094;2023-05-20T01:27:56;97419.19;;;13.06;100.00
22755;BME280;11544;42.020;23.094;2023-05-20T01:30:37;97408.28;;;13.38;100.00
22755;BME280;11544;42.020;23.094;2023-05-20T01:33:10;97404.72;;;13.18;100.00
22755;BME280;11544;42.020;23.094;2023-05-20T01:35:39;97407.69;;;13.31;100.00
22755;BME280;11544;42.020;23.094;2023-05-20T01:38:07;97413.84;;;13.08;100.00
22755;BME280;11544;42.020;23.094;2023-05-20T01:40:34;97416.16;;;13.16;100.00
22755;BME280;11544;42.020;23.094;2023-05-20T01:43:02;97410.06;;;13.15;100.00
22755;BME280;11544;42.020;23.094;2023-05-20T01:45:29;97410.66;;;13.01;100.00
22755;BME280;11544;42.020;23.094;2023-05-20T01:47:56;97411.16;;;12.89;100.00
22755;BME280;11544;42.020;23.094;2023-05-20T01:50:24;97410.25;;;13.10;100.00
22755;BME280;11544;42.020;23.094;2023-05-20T01:52:52;97409.09;;;12.97;100.00
22755;BME280;11544;42.020;23.094;2023-05-20T01:55:19;97408.69;;;12.86;100.00
22755;BME280;11544;42.020;23.094;2023-05-20T01:57:46;97405.13;;;12.87;100.00
22755;BME280;11544;42.020;23.094;2023-05-20T02:00:13;97407.19;;;13.21;100.00
22755;BME280;11544;42.020;23.094;2023-05-20T02:02:41;97400.25;;;13.00;100.00
22755;BME280;11544;42.020;23.094;2023-05-20T02:05:08;97391.31;;;13.65;100.00
22755;BME280;11544;42.020;23.094;2023-05-20T02:07:35;97391.22;;;13.48;100.00
22755;BME280;11544;42.020;23.094;2023-05-20T02:10:03;97395.44;;;13.31;100.00
22755;BME280;11544;42.020;23.094;2023-05-20T02:12:30;97395.50;;;13.09;100.00
22755;BME280;11544;42.020;23.094;2023-05-20T02:14:57;97394.94;;;13.01;100.00
22755;BME280;11544;42.020;23.094;2023-05-20T02:17:23;97395.44;;;13.31;100.00
22755;BME280;11544;42.020;23.094;2023-05-20T02:19:50;97395.75;;;13.24;100.00
22755;BME280;11544;42.020;23.094;2023-05-20T02:22:18;97392.72;;;12.71;100.00
22755;BME280;11544;42.020;23.094;2023-05-20T02:24:45;97396.25;;;12.91;100.00
22755;BME280;11544;42.020;23.094;2023-05-20T02:27:12;97396.72;;;13.01;100.00
22755;BME280;11544;42.020;23.094;2023-05-20T02:29:39;97389.06;;;12.96;100.00
22755;BME280;11544;42.020;23.094;2023-05-20T02:32:06;97386.72;;;12.90;100.00
22755;BME280;11544;42.020;23.094;2023-05-20T02:34:33;97384.66;;;12.97;100.00
22755;BME280;11544;42.020;23.094;2023-05-20T02:37:00;97389.91;;;13.17;100.00
22755;BME280;11544;42.020;23.094;2023-05-20T02:39:28;97404.06;;;12.70;100.00
22755;BME280;11544;42.020;23.094;2023-05-20T02:41:56;97404.44;;;12.61;100.00
22755;BME280;11544;42.020;23.094;2023-05-20T02:44:23;97399.06;;;12.86;100.00
22755;BME280;11544;42.020;23.094;2023-05-20T02:46:50;97391.19;;;12.66;100.00
22755;BME280;11544;42.020;23.094;2023-05-20T02:49:17;97398.81;;;12.50;100.00
22755;BME280;11544;42.020;23.094;2023-05-20T02:51:46;97399.19;;;13.04;100.00
22755;BME280;11544;42.020;23.094;2023-05-20T02:54:18;97410.22;;;12.69;100.00
22755;BME280;11544;42.020;23.094;2023-05-20T02:56:45;97413.34;;;12.57;100.00
22755;BME280;11544;42.020;23.094;2023-05-20T02:59:15;97409.53;;;12.86;100.00
22755;BME280;11544;42.020;23.094;2023-05-20T03:02:20;97401.34;;;12.29;100.00
22755;BME280;11544;42.020;23.094;2023-05-20T03:04:52;97405.91;;;12.68;100.00
22755;BME280;11544;42.020;23.094;2023-05-20T03:07:20;97408.72;;;12.84;100.00
22755;BME280;11544;42.020;23.094;2023-05-20T03:09:47;97411.88;;;12.28;100.00
22755;BME280;11544;42.020;23.094;2023-05-20T03:12:14;97421.34;;;12.31;100.00
22755;BME280;11544;42.020;23.094;2023-05-20T03:14:41;97421.81;;;12.18;100.00
22755;BME280;11544;42.020;23.094;2023-05-20T03:17:09;97419.47;;;12.34;100.00
22755;BME280;11544;42.020;23.094;2023-05-20T03:19:37;97425.28;;;12.19;100.00
22755;BME280;11544;42.020;23.094;2023-05-20T03:22:04;97423.91;;;12.54;100.00
22755;BME280;11544;42.020;23.094;2023-05-20T03:24:31;97435.94;;;12.58;100.00
22755;BME280;11544;42.020;23.094;2023-05-20T03:26:58;97436.34;;;12.71;100.00
22755;BME280;11544;42.020;23.094;2023-05-20T03:29:25;97430.09;;;12.96;100.00
22755;BME280;11544;42.020;23.094;2023-05-20T03:31:52;97439.69;;;12.73;100.00
22755;BME280;11544;42.020;23.094;2023-05-20T03:34:20;97444.75;;;13.20;100.00
22755;BME280;11544;42.020;23.094;2023-05-20T03:36:47;97458.91;;;12.74;100.00
22755;BME280;11544;42.020;23.094;2023-05-20T03:39:21;97466.84;;;12.48;100.00
22755;BME280;11544;42.020;23.094;2023-05-20T03:41:48;97468.47;;;12.05;100.00
22755;BME280;11544;42.020;23.094;2023-05-20T03:44:15;97477.22;;;12.04;100.00
22755;BME280;11544;42.020;23.094;2023-05-20T03:46:42;97483.69;;;12.41;100.00
22755;BME280;11544;42.020;23.094;2023-05-20T03:49:09;97475.97;;;12.38;100.00
22755;BME280;11544;42.020;23.094;2023-05-20T03:51:37;97463.50;;;12.67;100.00
22755;BME280;11544;42.020;23.094;2023-05-20T03:54:03;97459.25;;;12.64;100.00
22755;BME280;11544;42.020;23.094;2023-05-20T03:56:31;97465.56;;;12.81;100.00
22755;BME280;11544;42.020;23.094;2023-05-20T03:58:58;97468.66;;;13.53;100.00
22755;BME280;11544;42.020;23.094;2023-05-20T04:01:25;97463.47;;;14.12;100.00
22755;BME280;11544;42.020;23.094;2023-05-20T04:03:52;97465.03;;;12.73;100.00
22755;BME280;11544;42.020;23.094;2023-05-20T04:06:19;97475.34;;;12.98;100.00
22755;BME280;11544;42.020;23.094;2023-05-20T04:08:48;97473.81;;;12.92;100.00
22755;BME280;11544;42.020;23.094;2023-05-20T04:11:16;97468.03;;;12.40;100.00
22755;BME280;11544;42.020;23.094;2023-05-20T04:13:43;97470.22;;;13.17;100.00
22755;BME280;11544;42.020;23.094;2023-05-20T04:16:12;97467.53;;;13.18;100.00
22755;BME280;11544;42.020;23.094;2023-05-20T04:18:44;97466.13;;;13.52;100.00
22755;BME280;11544;42.020;23.094;2023-05-20T04:21:13;97464.78;;;13.83;100.00
22755;BME280;11544;42.020;23.094;2023-05-20T04:23:42;97461.25;;;13.22;100.00
22755;BME280;11544;42.020;23.094;2023-05-20T04:26:09;97465.66;;;13.63;100.00
22755;BME280;11544;42.020;23.094;2023-05-20T04:28:37;97461.84;;;14.09;100.00
22755;BME280;11544;42.020;23.094;2023-05-20T04:31:04;97458.00;;;14.35;100.00
22755;BME280;11544;42.020;23.094;2023-05-20T04:33:32;97456.19;;;14.56;100.00
22755;BME280;11544;42.020;23.094;2023-05-20T04:35:58;97465.97;;;14.34;100.00
22755;BME280;11544;42.020;23.094;2023-05-20T04:38:27;97466.94;;;14.12;100.00
22755;BME280;11544;42.020;23.094;2023-05-20T04:40:58;97452.66;;;16.30;93.80
22755;BME280;11544;42.020;23.094;2023-05-20T04:43:26;97455.88;;;15.86;92.82
22755;BME280;11544;42.020;23.094;2023-05-20T04:45:57;97454.41;;;15.63;92.55
22755;BME280;11544;42.020;23.094;2023-05-20T04:48:26;97453.03;;;14.86;95.41
22755;BME280;11544;42.020;23.094;2023-05-20T04:50:55;97449.66;;;15.71;91.21
22755;BME280;11544;42.020;23.094;2023-05-20T04:53:22;97445.50;;;16.16;85.30
22755;BME280;11544;42.020;23.094;2023-05-20T04:55:53;97447.69;;;16.71;81.74
22755;BME280;11544;42.020;23.094;2023-05-20T04:58:20;97448.16;;;16.80;83.42
22755;BME280;11544;42.020;23.094;2023-05-20T05:00:50;97452.41;;;15.85;88.99
22755;BME280;11544;42.020;23.094;2023-05-20T05:03:18;97447.94;;;16.67;92.01
22755;BME280;11544;42.020;23.094;2023-05-20T05:05:44;97430.34;;;18.17;82.49
22755;BME280;11544;42.020;23.094;2023-05-20T05:08:11;97436.25;;;17.19;78.09
22755;BME280;11544;42.020;23.094;2023-05-20T05:10:38;97429.31;;;18.05;79.11
22755;BME280;11544;42.020;23.094;2023-05-20T05:13:06;97426.41;;;18.10;74.60
22755;BME280;11544;42.020;23.094;2023-05-20T05:15:32;97427.25;;;17.96;72.12
22755;BME280;11544;42.020;23.094;2023-05-20T05:18:03;97435.47;;;16.86;78.62
22755;BME280;11544;42.020;23.094;2023-05-20T05:20:30;97428.94;;;17.38;79.44
22755;BME280;11544;42.020;23.094;2023-05-20T05:23:00;97415.31;;;18.46;70.73
22755;BME280;11544;42.020;23.094;2023-05-20T05:25:27;97428.31;;;17.34;74.00
22755;BME280;11544;42.020;23.094;2023-05-20T05:27:54;97429.97;;;17.35;79.14
22755;BME280;11544;42.020;23.094;2023-05-20T05:30:21;97426.03;;;17.87;72.58
22755;BME280;11544;42.020;23.094;2023-05-20T05:32:48;97420.53;;;19.02;67.99
22755;BME280;11544;42.020;23.094;2023-05-20T05:35:15;97425.81;;;19.15;65.84
22755;BME280;11544;42.020;23.094;2023-05-20T05:37:42;97423.84;;;19.44;63.26
22755;BME280;11544;42.020;23.094;2023-05-20T05:40:10;97424.22;;;19.12;66.65
22755;BME280;11544;42.020;23.094;2023-05-20T05:42:37;97418.78;;;18.88;64.71
22755;BME280;11544;42.020;23.094;2023-05-20T05:45:04;97419.03;;;18.29;67.48
22755;BME280;11544;42.020;23.094;2023-05-20T05:47:31;97417.63;;;17.95;72.92
22755;BME280;11544;42.020;23.094;2023-05-20T05:49:58;97406.25;;;18.50;69.54
22755;BME280;11544;42.020;23.094;2023-05-20T05:52:28;97413.59;;;18.87;68.19
22755;BME280;11544;42.020;23.094;2023-05-20T05:54:55;97412.25;;;19.59;63.91
22755;BME280;11544;42.020;23.094;2023-05-20T05:57:22;97414.03;;;19.46;66.28
22755;BME280;11544;42.020;23.094;2023-05-20T05:59:51;97424.16;;;18.87;67.91
22755;BME280;11544;42.020;23.094;2023-05-20T06:02:21;97414.75;;;18.41;68.71
22755;BME280;11544;42.020;23.094;2023-05-20T06:04:48;97420.28;;;18.92;67.03
22755;BME280;11544;42.020;23.094;2023-05-20T06:07:18;97407.41;;;20.41;60.95
22755;BME280;11544;42.020;23.094;2023-05-20T06:09:48;97399.19;;;18.78;66.14
22755;BME280;11544;42.020;23.094;2023-05-20T06:12:14;97387.72;;;19.44;63.94
22755;BME280;11544;42.020;23.094;2023-05-20T06:14:42;97383.59;;;19.28;67.63
22755;BME280;11544;42.020;23.094;2023-05-20T06:17:09;97388.03;;;19.65;63.32
22755;BME280;11544;42.020;23.094;2023-05-20T06:19:35;97391.50;;;20.78;60.91
22755;BME280;11544;42.020;23.094;2023-05-20T06:22:02;97392.34;;;20.18;60.63
22755;BME280;11544;42.020;23.094;2023-05-20T06:24:30;97390.19;;;21.08;57.71
22755;BME280;11544;42.020;23.094;2023-05-20T06:27:00;97396.28;;;19.61;62.14
22755;BME280;11544;42.020;23.094;2023-05-20T06:29:27;97395.53;;;19.59;62.94
22755;BME280;11544;42.020;23.094;2023-05-20T06:31:54;97385.94;;;19.71;63.84
22755;BME280;11544;42.020;23.094;2023-05-20T06:34:22;97388.44;;;19.98;61.14
22755;BME280;11544;42.020;23.094;2023-05-20T06:36:49;97389.63;;;21.27;59.88
22755;BME280;11544;42.020;23.094;2023-05-20T06:39:16;97397.47;;;21.28;59.44
22755;BME280;11544;42.020;23.094;2023-05-20T06:41:46;97387.63;;;20.34;61.32
22755;BME280;11544;42.020;23.094;2023-05-20T06:44:13;97384.53;;;20.03;65.09
22755;BME280;11544;42.020;23.094;2023-05-20T06:46:40;97375.69;;;20.52;60.39
22755;BME280;11544;42.020;23.094;2023-05-20T06:49:09;97374.28;;;21.43;59.28
22755;BME280;11544;42.020;23.094;2023-05-20T06:51:36;97379.28;;;20.88;62.16
22755;BME280;11544;42.020;23.094;2023-05-20T06:54:03;97371.56;;;21.32;59.90
22755;BME280;11544;42.020;23.094;2023-05-20T06:56:30;97365.50;;;21.19;60.29
22755;BME280;11544;42.020;23.094;2023-05-20T06:58:57;97347.38;;;22.15;57.17
22755;BME280;11544;42.020;23.094;2023-05-20T07:01:24;97349.81;;;21.51;57.12
22755;BME280;11544;42.020;23.094;2023-05-20T07:03:51;97364.41;;;21.10;59.76
22755;BME280;11544;42.020;23.094;2023-05-20T07:06:19;97358.53;;;21.18;60.04
22755;BME280;11544;42.020;23.094;2023-05-20T07:08:47;97351.72;;;21.83;59.99
22755;BME280;11544;42.020;23.094;2023-05-20T07:11:14;97344.03;;;21.80;58.97
22755;BME280;11544;42.020;23.094;2023-05-20T07:13:40;97334.50;;;21.77;57.45
22755;BME280;11544;42.020;23.094;2023-05-20T07:16:07;97338.56;;;20.89;60.73
22755;BME280;11544;42.020;23.094;2023-05-20T07:18:35;97330.41;;;21.62;60.82
22755;BME280;11544;42.020;23.094;2023-05-20T07:21:03;97324.13;;;21.63;60.55
22755;BME280;11544;42.020;23.094;2023-05-20T07:23:33;97311.72;;;21.86;59.96
22755;BME280;11544;42.020;23.094;2023-05-20T07:26:00;97318.75;;;22.74;58.48
22755;BME280;11544;42.020;23.094;2023-05-20T07:28:29;97309.47;;;22.68;57.92
22755;BME280;11544;42.020;23.094;2023-05-20T07:30:56;97305.31;;;21.99;55.88
22755;BME280;11544;42.020;23.094;2023-05-20T07:33:24;97302.75;;;22.09;58.93
22755;BME280;11544;42.020;23.094;2023-05-20T07:35:51;97292.84;;;22.87;56.87
22755;BME280;11544;42.020;23.094;2023-05-20T07:38:21;97293.31;;;22.16;57.48
22755;BME280;11544;42.020;23.094;2023-05-20T07:40:47;97297.03;;;22.90;57.69
22755;BME280;11544;42.020;23.094;2023-05-20T07:43:15;97297.63;;;22.93;55.57
22755;BME280;11544;42.020;23.094;2023-05-20T07:45:42;97297.59;;;22.51;55.09
22755;BME280;11544;42.020;23.094;2023-05-20T07:48:09;97283.25;;;22.75;55.31
22755;BME280;11544;42.020;23.094;2023-05-20T07:50:36;97276.03;;;22.87;56.55
22755;BME280;11544;42.020;23.094;2023-05-20T07:53:03;97270.81;;;23.17;57.00
22755;BME280;11544;42.020;23.094;2023-05-20T07:55:33;97268.69;;;22.58;53.56
22755;BME280;11544;42.020;23.094;2023-05-20T07:58:09;97273.63;;;22.62;54.42
22755;BME280;11544;42.020;23.094;2023-05-20T08:00:36;97264.28;;;23.31;54.22
22755;BME280;11544;42.020;23.094;2023-05-20T08:03:02;97255.06;;;23.35;55.94
22755;BME280;11544;42.020;23.094;2023-05-20T08:05:30;97235.44;;;23.98;54.15
22755;BME280;11544;42.020;23.094;2023-05-20T08:07:57;97228.09;;;23.40;52.95
22755;BME280;11544;42.020;23.094;2023-05-20T08:10:24;97233.22;;;23.62;53.98
22755;BME280;11544;42.020;23.094;2023-05-20T08:12:51;97220.59;;;23.64;53.52
22755;BME280;11544;42.020;23.094;2023-05-20T08:15:19;97226.47;;;23.58;52.96
22755;BME280;11544;42.020;23.094;2023-05-20T08:17:45;97231.38;;;23.53;51.60
22755;BME280;11544;42.020;23.094;2023-05-20T08:20:13;97238.91;;;23.79;52.37
22755;BME280;11544;42.020;23.094;2023-05-20T08:22:42;97229.81;;;23.91;51.78
22755;BME280;11544;42.020;23.094;2023-05-20T08:25:10;97228.59;;;24.05;53.54
22755;BME280;11544;42.020;23.094;2023-05-20T08:27:37;97220.63;;;24.54;53.66
22755;BME280;11544;42.020;23.094;2023-05-20T08:30:04;97219.88;;;23.93;54.00
22755;BME280;11544;42.020;23.094;2023-05-20T08:32:33;97221.34;;;23.76;52.47
22755;BME280;11544;42.020;23.094;2023-05-20T08:35:00;97207.09;;;23.87;52.26
22755;BME280;11544;42.020;23.094;2023-05-20T08:37:28;97209.66;;;23.98;51.30
22755;BME280;11544;42.020;23.094;2023-05-20T08:39:55;97204.84;;;23.42;52.36
22755;BME280;11544;42.020;23.094;2023-05-20T08:42:22;97203.63;;;24.06;51.08
22755;BME280;11544;42.020;23.094;2023-05-20T08:44:51;97191.22;;;25.02;50.42
22755;BME280;11544;42.020;23.094;2023-05-20T08:47:19;97197.03;;;24.68;49.73
22755;BME280;11544;42.020;23.094;2023-05-20T08:49:48;97190.34;;;24.55;48.87
22755;BME280;11544;42.020;23.094;2023-05-20T08:52:16;97194.94;;;24.43;46.54
22755;BME280;11544;42.020;23.094;2023-05-20T08:55:04;97197.75;;;24.41;46.80
22755;BME280;11544;42.020;23.094;2023-05-20T08:57:33;97189.47;;;24.54;47.67
22755;BME280;11544;42.020;23.094;2023-05-20T09:00:02;97195.63;;;24.16;49.05
22755;BME280;11544;42.020;23.094;2023-05-20T09:02:41;97188.50;;;24.45;50.43
22755;BME280;11544;42.020;23.094;2023-05-20T09:05:09;97187.41;;;24.48;49.08
22755;BME280;11544;42.020;23.094;2023-05-20T09:07:37;97169.13;;;25.20;49.89
22755;BME280;11544;42.020;23.094;2023-05-20T09:10:04;97168.34;;;25.00;48.18
22755;BME280;11544;42.020;23.094;2023-05-20T09:12:31;97162.38;;;25.15;47.54
22755;BME280;11544;42.020;23.094;2023-05-20T09:14:58;97158.84;;;24.78;47.43
22755;BME280;11544;42.020;23.094;2023-05-20T09:17:25;97155.63;;;25.31;46.11
22755;BME280;11544;42.020;23.094;2023-05-20T09:19:53;97154.78;;;25.30;45.63
22755;BME280;11544;42.020;23.094;2023-05-20T09:22:27;97156.31;;;25.33;46.50
22755;BME280;11544;42.020;23.094;2023-05-20T09:24:54;97149.59;;;25.29;45.29
22755;BME280;11544;42.020;23.094;2023-05-20T09:27:22;97153.22;;;24.90;46.39
22755;BME280;11544;42.020;23.094;2023-05-20T09:29:50;97137.84;;;24.75;46.84
22755;BME280;11544;42.020;23.094;2023-05-20T09:32:20;97134.34;;;25.11;46.34
22755;BME280;11544;42.020;23.094;2023-05-20T09:34:49;97128.06;;;25.40;48.40
22755;BME280;11544;42.020;23.094;2023-05-20T09:37:17;97127.13;;;24.84;49.67
22755;BME280;11544;42.020;23.094;2023-05-20T09:40:06;97117.75;;;25.18;48.02
22755;BME280;11544;42.020;23.094;2023-05-20T09:42:47;97113.75;;;25.77;46.82
22755;BME280;11544;42.020;23.094;2023-05-20T09:45:16;97106.84;;;26.02;46.93
22755;BME280;11544;42.020;23.094;2023-05-20T09:47:56;97092.09;;;26.16;47.13
22755;BME280;11544;42.020;23.094;2023-05-20T09:50:26;97085.47;;;26.20;46.77
22755;BME280;11544;42.020;23.094;2023-05-20T09:52:54;97083.88;;;26.09;47.40
22755;BME280;11544;42.020;23.094;2023-05-20T09:55:24;97080.75;;;26.92;45.58
22755;BME280;11544;42.020;23.094;2023-05-20T09:57:52;97077.13;;;26.67;45.22
22755;BME280;11544;42.020;23.094;2023-05-20T10:00:20;97069.22;;;26.39;45.94
22755;BME280;11544;42.020;23.094;2023-05-20T10:02:49;97072.72;;;26.14;45.88
22755;BME280;11544;42.020;23.094;2023-05-20T10:13:33;97044.47;;;26.90;44.68
22755;BME280;11544;42.020;23.094;2023-05-20T10:16:12;97040.91;;;26.81;42.32
22755;BME280;11544;42.020;23.094;2023-05-20T10:18:51;97028.63;;;27.04;43.12
22755;BME280;11544;42.020;23.094;2023-05-20T10:21:22;97027.47;;;26.65;42.74
22755;BME280;11544;42.020;23.094;2023-05-20T10:24:13;97029.28;;;26.56;41.83
22755;BME280;11544;42.020;23.094;2023-05-20T10:26:41;97017.91;;;26.54;42.25
22755;BME280;11544;42.020;23.094;2023-05-20T10:29:18;97017.66;;;26.73;40.39
22755;BME280;11544;42.020;23.094;2023-05-20T10:31:49;97009.50;;;26.83;40.99
22755;BME280;11544;42.020;23.094;2023-05-20T10:34:21;96999.97;;;27.23;38.08
22755;BME280;11544;42.020;23.094;2023-05-20T10:39:29;96993.81;;;26.88;39.06
22755;BME280;11544;42.020;23.094;2023-05-20T10:42:10;96978.97;;;26.94;38.50
22755;BME280;11544;42.020;23.094;2023-05-20T10:44:45;96979.66;;;26.96;38.18
22755;BME280;11544;42.020;23.094;2023-05-20T10:47:13;96973.63;;;27.02;36.99
22755;BME280;11544;42.020;23.094;2023-05-20T10:49:46;96972.50;;;26.62;37.64
22755;BME280;11544;42.020;23.094;2023-05-20T10:52:13;96969.16;;;27.11;39.33
22755;BME280;11544;42.020;23.094;2023-05-20T10:54:55;96960.63;;;27.15;35.95
22755;BME280;11544;42.020;23.094;2023-05-20T10:57:25;96964.38;;;27.39;38.03
22755;BME280;11544;42.020;23.094;2023-05-20T10:59:52;96964.03;;;26.75;37.25
22755;BME280;11544;42.020;23.094;2023-05-20T11:02:20;96938.59;;;27.30;37.40
22755;BME280;11544;42.020;23.094;2023-05-20T11:04:54;96946.97;;;27.67;37.41
22755;BME280;11544;42.020;23.094;2023-05-20T11:07:25;96946.50;;;27.64;37.53
22755;BME280;11544;42.020;23.094;2023-05-20T11:09:54;96950.81;;;27.73;36.71
22755;BME280;11544;42.020;23.094;2023-05-20T11:12:22;96945.47;;;27.65;39.03
22755;BME280;11544;42.020;23.094;2023-05-20T11:14:49;96948.34;;;26.72;40.84
22755;BME280;11544;42.020;23.094;2023-05-20T11:17:20;96940.81;;;26.41;40.61
22755;BME280;11544;42.020;23.094;2023-05-20T11:19:47;96937.09;;;26.00;39.85
22755;BME280;11544;42.020;23.094;2023-05-20T11:22:16;96947.16;;;26.06;39.40
22755;BME280;11544;42.020;23.094;2023-05-20T11:24:43;96942.66;;;26.14;39.02
22755;BME280;11544;42.020;23.094;2023-05-20T11:27:10;96942.72;;;26.23;37.45
22755;BME280;11544;42.020;23.094;2023-05-20T11:29:38;96933.13;;;25.86;36.41
22755;BME280;11544;42.020;23.094;2023-05-20T11:32:07;96926.94;;;25.85;36.98
22755;BME280;11544;42.020;23.094;2023-05-20T11:34:35;96924.91;;;25.79;36.53
22755;BME280;11544;42.020;23.094;2023-05-20T11:37:06;96932.50;;;25.66;37.27
22755;BME280;11544;42.020;23.094;2023-05-20T11:39:35;96920.50;;;25.70;36.59
22755;BME280;11544;42.020;23.094;2023-05-20T11:42:03;96923.75;;;25.38;36.31
22755;BME280;11544;42.020;23.094;2023-05-20T11:44:31;96926.81;;;25.43;36.70
22755;BME280;11544;42.020;23.094;2023-05-20T11:47:02;96926.34;;;25.11;36.54
22755;BME280;11544;42.020;23.094;2023-05-20T11:49:29;96917.59;;;25.19;36.78
22755;BME280;11544;42.020;23.094;2023-05-20T11:51:58;96920.31;;;25.63;38.59
22755;BME280;11544;42.020;23.094;2023-05-20T11:54:25;96924.59;;;25.20;40.00
22755;BME280;11544;42.020;23.094;2023-05-20T11:56:53;96919.25;;;25.20;40.21
22755;BME280;11544;42.020;23.094;2023-05-20T11:59:23;96923.84;;;25.28;40.67
22755;BME280;11544;42.020;23.094;2023-05-20T12:01:51;96921.94;;;25.38;41.34
22755;BME280;11544;42.020;23.094;2023-05-20T12:04:17;96918.66;;;25.26;41.07
22755;BME280;11544;42.020;23.094;2023-05-20T12:36:54;96883.53;;;25.31;48.50
22755;BME280;11544;42.020;23.094;2023-05-20T12:39:22;96881.97;;;25.46;48.57
22755;BME280;11544;42.020;23.094;2023-05-20T12:42:00;96883.28;;;25.06;49.18
22755;BME280;11544;42.020;23.094;2023-05-20T12:44:27;96880.25;;;24.83;47.76
22755;BME280;11544;42.020;23.094;2023-05-20T12:46:54;96876.22;;;24.51;48.80
22755;BME280;11544;42.020;23.094;2023-05-20T12:49:22;96879.19;;;24.48;48.38
22755;BME280;11544;42.020;23.094;2023-05-20T12:59:47;96880.53;;;23.97;50.38
22755;BME280;11544;42.020;23.094;2023-05-20T13:02:18;96876.19;;;23.96;49.09
22755;BME280;11544;42.020;23.094;2023-05-20T13:04:47;96873.94;;;23.44;49.88
22755;BME280;11544;42.020;23.094;2023-05-20T13:07:14;96880.31;;;23.61;49.20
22755;BME280;11544;42.020;23.094;2023-05-20T13:09:43;96872.53;;;23.31;50.76
22755;BME280;11544;42.020;23.094;2023-05-20T13:12:10;96866.94;;;23.34;51.83
22755;BME280;11544;42.020;23.094;2023-05-20T13:14:36;96871.44;;;23.23;53.05
22755;BME280;11544;42.020;23.094;2023-05-20T13:17:03;96869.34;;;23.17;53.80
22755;BME280;11544;42.020;23.094;2023-05-20T13:19:30;96867.94;;;22.94;55.24
22755;BME280;11544;42.020;23.094;2023-05-20T13:21:57;96861.25;;;22.99;56.31
22755;BME280;11544;42.020;23.094;2023-05-20T13:24:24;96854.78;;;23.02;57.26
22755;BME280;11544;42.020;23.094;2023-05-20T13:26:51;96850.69;;;23.46;56.89
22755;BME280;11544;42.020;23.094;2023-05-20T13:29:18;96852.66;;;23.35;58.80
22755;BME280;11544;42.020;23.094;2023-05-20T13:31:46;96844.13;;;23.98;56.59
22755;BME280;11544;42.020;23.094;2023-05-20T13:34:13;96841.34;;;24.17;56.02
22755;BME280;11544;42.020;23.094;2023-05-20T13:36:40;96840.66;;;24.43;53.69
22755;BME280;11544;42.020;23.094;2023-05-20T13:39:07;96835.06;;;25.00;52.83
22755;BME280;11544;42.020;23.094;2023-05-20T13:41:34;96833.94;;;25.02;52.42